createdAt,value
2018-07-05T00:01:26.210Z,3.37
2018-07-05T00:04:07.988Z,3.00
2018-07-05T00:06:47.618Z,3.17
2018-07-05T00:09:27.268Z,3.53
2018-07-05T00:12:06.954Z,3.03
2018-07-05T00:14:46.931Z,2.33
2018-07-05T00:17:26.701Z,2.37
2018-07-05T00:21:09.532Z,2.30
2018-07-05T00:23:49.186Z,2.40
2018-07-05T00:26:29.135Z,2.63
2018-07-05T00:29:08.775Z,2.23
2018-07-05T00:31:48.663Z,3.20
2018-07-05T00:34:28.302Z,2.30
2018-07-05T00:37:07.944Z,2.30
2018-07-05T00:39:47.737Z,2.30
2018-07-05T00:42:27.599Z,2.37
2018-07-05T00:45:07.565Z,2.33
2018-07-05T00:47:47.071Z,2.17
2018-07-05T00:50:26.817Z,1.80
2018-07-05T00:53:06.431Z,2.50
2018-07-05T00:55:39.884Z,1.90
2018-07-05T00:58:19.633Z,2.30
2018-07-05T01:00:59.463Z,2.03
2018-07-05T01:03:39.064Z,1.90
2018-07-05T01:06:18.924Z,1.83
2018-07-05T01:08:58.766Z,2.17
2018-07-05T01:11:38.603Z,2.00
2018-07-05T01:14:18.457Z,1.73
2018-07-05T01:16:58.314Z,1.97
2018-07-05T01:19:37.939Z,2.07
2018-07-05T01:22:17.593Z,2.30
2018-07-05T01:24:57.371Z,1.70
2018-07-05T01:27:37.924Z,1.73
2018-07-05T01:30:19.097Z,2.60
2018-07-05T01:32:58.677Z,2.70
2018-07-05T01:35:38.476Z,2.33
2018-07-05T01:38:17.881Z,2.60
2018-07-05T01:40:57.819Z,3.13
2018-07-05T01:43:37.541Z,2.60
2018-07-05T01:46:17.264Z,2.90
2018-07-05T01:48:56.660Z,2.73
2018-07-05T01:51:43.065Z,2.93
2018-07-05T01:54:23.028Z,3.33
2018-07-05T01:57:02.511Z,3.30
2018-07-05T01:59:42.093Z,3.47
2018-07-05T02:02:21.640Z,3.83
2018-07-05T02:05:01.170Z,3.87
2018-07-05T02:07:40.789Z,3.50
2018-07-05T02:10:20.432Z,3.93
2018-07-05T02:13:00.119Z,4.17
2018-07-05T02:15:39.729Z,3.83
2018-07-05T02:18:19.571Z,3.37
2018-07-05T02:20:59.827Z,4.20
2018-07-05T02:23:39.555Z,4.17
2018-07-05T02:26:19.167Z,4.73
2018-07-05T02:28:58.980Z,3.57
2018-07-05T02:31:38.424Z,3.93
2018-07-05T02:34:17.990Z,4.83
2018-07-05T02:36:57.629Z,4.30
2018-07-05T02:39:42.980Z,4.30
2018-07-05T02:42:16.513Z,4.40
2018-07-05T02:44:56.165Z,4.30
2018-07-05T02:47:35.688Z,4.30
2018-07-05T02:50:15.428Z,4.50
2018-07-05T02:52:55.060Z,4.47
2018-07-05T02:55:34.609Z,4.70
2018-07-05T02:58:14.192Z,5.17
2018-07-05T03:00:53.876Z,4.90
2018-07-05T03:03:33.561Z,5.00
2018-07-05T03:06:13.101Z,4.87
2018-07-05T03:08:52.632Z,4.87
2018-07-05T03:11:32.249Z,4.67
2018-07-05T03:14:11.797Z,4.57
2018-07-05T03:16:51.309Z,4.87
2018-07-05T03:19:30.836Z,3.87
2018-07-05T03:22:10.381Z,3.93
2018-07-05T03:24:50.027Z,4.73
2018-07-05T03:27:29.694Z,4.53
2018-07-05T03:30:09.161Z,4.20
2018-07-05T03:32:48.629Z,4.83
2018-07-05T03:35:28.359Z,4.10
2018-07-05T03:38:07.823Z,4.63
2018-07-05T03:40:47.290Z,4.80
2018-07-05T03:43:26.790Z,4.23
2018-07-05T03:46:06.317Z,4.37
2018-07-05T03:48:45.765Z,5.20
2018-07-05T03:51:25.392Z,6.27
2018-07-05T03:54:05.064Z,5.13
2018-07-05T03:56:44.670Z,4.63
2018-07-05T03:59:24.372Z,5.47
2018-07-05T04:02:03.872Z,6.00
2018-07-05T04:04:43.500Z,5.73
2018-07-05T04:07:23.148Z,4.97
2018-07-05T04:10:02.784Z,4.53
2018-07-05T04:12:42.626Z,4.00
2018-07-05T04:15:22.296Z,5.70
2018-07-05T04:18:01.881Z,5.20
2018-07-05T04:20:41.349Z,5.37
2018-07-05T04:23:20.844Z,5.40
2018-07-05T04:26:00.536Z,5.03
2018-07-05T04:28:40.122Z,5.67
2018-07-05T04:31:19.697Z,5.20
2018-07-05T04:33:59.297Z,4.47
2018-07-05T04:36:38.932Z,5.53
2018-07-05T04:39:18.641Z,5.20
2018-07-05T04:41:58.222Z,5.17
2018-07-05T04:44:37.744Z,5.57
2018-07-05T04:47:17.424Z,6.47
2018-07-05T04:49:57.013Z,4.93
2018-07-05T04:52:36.504Z,6.20
2018-07-05T04:55:16.217Z,5.00
2018-07-05T04:57:55.897Z,5.63
2018-07-05T05:00:35.621Z,4.93
2018-07-05T05:03:15.552Z,4.63
2018-07-05T05:05:55.221Z,5.17
2018-07-05T05:08:34.973Z,5.20
2018-07-05T05:11:14.696Z,5.07
2018-07-05T05:13:54.469Z,5.43
2018-07-05T05:16:34.085Z,5.17
2018-07-05T05:19:13.729Z,5.10
2018-07-05T05:21:53.426Z,5.17
2018-07-05T05:24:33.052Z,4.17
2018-07-05T05:27:12.641Z,5.77
2018-07-05T05:29:52.262Z,5.20
2018-07-05T05:32:31.947Z,4.77
2018-07-05T05:35:11.449Z,4.83
2018-07-05T05:37:51.002Z,4.13
2018-07-05T05:40:30.722Z,4.80
2018-07-05T05:43:10.510Z,5.53
2018-07-05T05:45:50.124Z,5.53
2018-07-05T05:48:29.905Z,5.30
2018-07-05T05:51:09.605Z,4.87
2018-07-05T05:53:49.105Z,5.57
2018-07-05T05:56:22.773Z,4.40
2018-07-05T05:59:02.396Z,5.10
2018-07-05T06:01:41.815Z,4.87
2018-07-05T06:04:21.362Z,4.57
2018-07-05T06:07:00.879Z,4.53
2018-07-05T06:09:40.329Z,4.27
2018-07-05T06:15:12.130Z,4.10
2018-07-05T06:17:51.745Z,3.90
2018-07-05T06:20:31.468Z,2.67
2018-07-05T06:23:11.125Z,2.30
2018-07-05T06:25:50.851Z,2.80
2018-07-05T06:28:30.618Z,3.50
2018-07-05T06:31:10.280Z,2.83
2018-07-05T06:33:49.602Z,3.23
2018-07-05T06:36:29.263Z,3.30
2018-07-05T06:39:08.788Z,2.97
2018-07-05T06:41:49.072Z,3.33
2018-07-05T06:44:28.516Z,3.37
2018-07-05T06:47:08.082Z,4.90
2018-07-05T06:49:47.845Z,4.53
2018-07-05T06:52:27.453Z,4.60
2018-07-05T06:55:07.158Z,4.60
2018-07-05T06:57:46.890Z,4.27
2018-07-05T07:00:27.513Z,3.97
2018-07-05T07:03:07.141Z,3.20
2018-07-05T07:05:46.685Z,3.00
2018-07-05T07:08:26.474Z,2.60
2018-07-05T07:11:06.106Z,2.53
2018-07-05T07:13:45.572Z,2.73
2018-07-05T07:16:25.053Z,2.40
2018-07-05T07:19:04.670Z,2.70
2018-07-05T07:21:44.514Z,2.10
2018-07-05T07:24:23.972Z,2.20
2018-07-05T07:27:03.633Z,2.70
2018-07-05T07:29:43.017Z,2.97
2018-07-05T07:32:22.641Z,3.47
2018-07-05T07:35:02.190Z,2.80
2018-07-05T07:37:41.719Z,2.63
2018-07-05T07:40:21.404Z,3.43
2018-07-05T07:42:48.708Z,3.00
2018-07-05T07:45:15.890Z,3.00
2018-07-05T07:47:43.003Z,2.47
2018-07-05T07:50:10.137Z,2.27
2018-07-05T07:52:37.293Z,1.90
2018-07-05T07:55:04.449Z,2.37
2018-07-05T07:57:31.601Z,2.10
2018-07-05T07:59:58.757Z,2.40
2018-07-05T08:02:25.903Z,1.77
2018-07-05T08:04:53.057Z,1.93
2018-07-05T08:07:20.189Z,2.00
2018-07-05T08:09:47.359Z,1.90
2018-07-05T08:12:14.530Z,1.83
2018-07-05T08:14:41.687Z,1.50
2018-07-05T08:17:08.831Z,1.97
2018-07-05T08:19:36.005Z,1.90
2018-07-05T08:22:03.153Z,1.97
2018-07-05T08:24:30.289Z,2.30
2018-07-05T08:26:57.468Z,1.90
2018-07-05T08:29:24.596Z,2.07
2018-07-05T08:31:51.784Z,1.67
2018-07-05T08:34:18.925Z,1.87
2018-07-05T08:36:46.081Z,1.90
2018-07-05T08:39:13.241Z,1.47
2018-07-05T08:41:40.368Z,3.03
2018-07-05T08:44:07.522Z,3.13
2018-07-05T08:46:34.661Z,2.60
2018-07-05T08:49:01.830Z,2.00
2018-07-05T08:51:28.957Z,1.70
2018-07-05T08:53:56.136Z,1.33
2018-07-05T08:56:23.260Z,1.57
2018-07-05T08:58:50.664Z,1.37
2018-07-05T09:01:18.937Z,1.60
2018-07-05T09:03:46.097Z,1.33
2018-07-05T09:06:13.297Z,1.70
2018-07-05T09:08:40.533Z,1.47
2018-07-05T09:11:07.768Z,1.37
2018-07-05T09:13:35.290Z,1.47
2018-07-05T09:16:02.417Z,1.87
2018-07-05T09:18:29.639Z,1.53
2018-07-05T09:20:56.745Z,1.10
2018-07-05T09:23:23.977Z,1.50
2018-07-05T09:25:51.074Z,1.10
2018-07-05T09:28:18.239Z,0.97
2018-07-05T09:30:45.386Z,1.47
2018-07-05T09:33:12.534Z,1.30
2018-07-05T09:35:39.672Z,1.03
2018-07-05T09:38:06.846Z,1.10
2018-07-05T09:40:33.973Z,1.27
2018-07-05T09:43:01.152Z,1.20
2018-07-05T09:45:28.280Z,1.40
2018-07-05T09:47:55.445Z,1.60
2018-07-05T09:50:22.589Z,1.50
2018-07-05T09:52:49.781Z,1.10
2018-07-05T09:55:16.891Z,1.33
2018-07-05T09:57:44.043Z,1.70
2018-07-05T10:00:11.849Z,1.20
2018-07-05T10:02:39.901Z,1.17
2018-07-05T10:05:07.041Z,1.80
2018-07-05T10:07:34.437Z,1.30
2018-07-05T10:10:01.982Z,1.50
2018-07-05T10:12:29.148Z,1.40
2018-07-05T10:14:56.296Z,1.50
2018-07-05T10:17:23.461Z,1.00
2018-07-05T10:19:50.596Z,1.63
2018-07-05T10:22:17.759Z,1.33
2018-07-05T10:24:44.909Z,1.70
2018-07-05T10:27:12.067Z,1.70
2018-07-05T10:29:51.557Z,1.47
2018-07-05T10:32:31.243Z,1.60
2018-07-05T10:34:58.441Z,1.07
2018-07-05T10:37:25.580Z,1.60
2018-07-05T10:40:05.832Z,1.40
2018-07-05T10:42:45.528Z,1.20
2018-07-05T10:45:25.087Z,1.20
2018-07-05T10:48:04.663Z,1.37
2018-07-05T10:50:44.277Z,1.50
2018-07-05T10:53:23.774Z,1.20
2018-07-05T10:56:03.213Z,1.17
2018-07-05T10:58:42.972Z,1.20
2018-07-05T11:01:22.661Z,1.40
2018-07-05T11:04:02.347Z,1.40
2018-07-05T11:06:41.737Z,1.27
2018-07-05T11:09:21.147Z,1.30
2018-07-05T11:12:00.724Z,1.50
2018-07-05T11:14:40.436Z,1.70
2018-07-05T11:17:20.122Z,1.70
2018-07-05T11:19:59.654Z,1.30
2018-07-05T11:22:39.298Z,1.50
2018-07-05T11:25:18.745Z,1.20
2018-07-05T11:27:58.159Z,1.03
2018-07-05T11:30:37.812Z,1.57
2018-07-05T11:33:17.475Z,1.00
2018-07-05T11:35:56.945Z,1.33
2018-07-05T11:38:36.562Z,1.20
2018-07-05T11:41:16.400Z,1.40
2018-07-05T11:43:56.046Z,1.43
2018-07-05T11:46:35.639Z,1.50
2018-07-05T11:49:15.209Z,1.40
2018-07-05T11:51:54.950Z,1.33
2018-07-05T11:54:34.592Z,1.27
2018-07-05T12:00:04.417Z,1.30
2018-07-05T12:02:52.858Z,1.80
2018-07-05T12:08:23.013Z,1.10
2018-07-05T12:11:02.482Z,1.70
2018-07-05T12:13:42.156Z,2.17
2018-07-05T12:16:21.789Z,1.70
2018-07-05T12:19:01.350Z,1.83
2018-07-05T12:21:41.098Z,1.90
2018-07-05T12:24:20.544Z,1.53
2018-07-05T12:27:00.157Z,2.13
2018-07-05T12:29:39.813Z,1.73
2018-07-05T12:32:19.457Z,1.60
2018-07-05T12:34:59.048Z,1.80
2018-07-05T12:37:38.693Z,1.77
2018-07-05T12:40:18.286Z,1.50
2018-07-05T12:42:57.673Z,1.27
2018-07-05T12:45:37.212Z,1.90
2018-07-05T12:48:17.036Z,1.70
2018-07-05T12:50:56.677Z,1.80
2018-07-05T12:53:36.132Z,2.57
2018-07-05T12:56:15.660Z,1.73
2018-07-05T12:58:55.345Z,1.93
2018-07-05T13:01:34.922Z,1.70
2018-07-05T13:04:14.737Z,1.50
2018-07-05T13:06:54.213Z,1.30
2018-07-05T13:09:33.652Z,2.00
2018-07-05T13:12:13.272Z,1.57
2018-07-05T13:14:52.725Z,1.83
2018-07-05T13:17:32.517Z,1.90
2018-07-05T13:20:12.112Z,2.63
2018-07-05T13:22:51.753Z,2.50
2018-07-05T13:25:31.286Z,2.10
2018-07-05T13:28:10.961Z,2.20
2018-07-05T13:30:50.556Z,1.97
2018-07-05T13:33:30.028Z,2.33
2018-07-05T13:36:09.545Z,2.80
2018-07-05T13:38:49.003Z,2.37
2018-07-05T13:41:28.738Z,2.50
2018-07-05T13:44:08.349Z,3.80
2018-07-05T13:46:47.915Z,3.20
2018-07-05T13:49:27.566Z,2.10
2018-07-05T13:52:07.330Z,2.00
2018-07-05T13:54:41.240Z,1.63
2018-07-05T13:57:20.865Z,1.50
2018-07-05T14:00:00.600Z,2.37
2018-07-05T14:02:40.066Z,2.83
2018-07-05T14:05:13.588Z,2.50
2018-07-05T14:07:53.174Z,3.10
2018-07-05T14:10:32.799Z,3.23
2018-07-05T14:13:12.380Z,2.40
2018-07-05T14:15:51.906Z,2.67
2018-07-05T14:18:31.604Z,2.00
2018-07-05T14:21:11.049Z,3.17
2018-07-05T14:23:50.499Z,2.27
2018-07-05T14:26:30.078Z,2.97
2018-07-05T14:29:03.493Z,2.07
2018-07-05T14:31:43.067Z,2.43
2018-07-05T14:34:22.520Z,1.97
2018-07-05T14:37:02.234Z,2.77
2018-07-05T14:39:41.852Z,2.20
2018-07-05T14:42:21.353Z,1.23
2018-07-05T14:45:00.841Z,1.70
2018-07-05T14:47:40.540Z,2.10
2018-07-05T14:50:19.904Z,1.67
2018-07-05T14:52:59.439Z,2.20
2018-07-05T14:55:39.017Z,2.00
2018-07-05T14:58:18.476Z,2.07
2018-07-05T15:00:57.944Z,2.10
2018-07-05T15:03:37.576Z,1.83
2018-07-05T15:06:16.997Z,1.87
2018-07-05T15:08:50.532Z,1.60
2018-07-05T15:11:30.156Z,1.67
2018-07-05T15:14:09.727Z,1.93
2018-07-05T15:16:49.242Z,1.80
2018-07-05T15:19:28.881Z,1.87
2018-07-05T15:22:08.289Z,2.10
2018-07-05T15:24:47.877Z,1.90
2018-07-05T15:27:27.392Z,1.67
2018-07-05T15:30:06.965Z,1.80
2018-07-05T15:32:46.500Z,1.60
2018-07-05T15:35:26.014Z,1.73
2018-07-05T15:38:06.406Z,1.87
2018-07-05T15:40:45.914Z,1.57
2018-07-05T15:43:25.397Z,1.97
2018-07-05T15:46:04.869Z,1.80
2018-07-05T15:48:44.588Z,1.30
2018-07-05T15:51:18.244Z,1.70
2018-07-05T15:53:57.897Z,1.53
2018-07-05T15:56:37.440Z,1.10
2018-07-05T15:59:17.111Z,1.30
2018-07-05T16:01:56.801Z,1.17
2018-07-05T16:04:36.372Z,1.50
2018-07-05T16:07:16.093Z,1.33
2018-07-05T16:09:55.848Z,1.40
2018-07-05T16:12:35.442Z,1.60
2018-07-05T16:15:14.967Z,1.77
2018-07-05T16:17:54.448Z,1.70
2018-07-05T16:20:33.830Z,1.63
2018-07-05T16:23:13.445Z,1.33
2018-07-05T16:25:53.039Z,1.60
2018-07-05T16:28:32.664Z,1.50
2018-07-05T16:31:12.224Z,1.60
2018-07-05T16:33:54.191Z,1.67
2018-07-05T16:36:33.950Z,1.57
2018-07-05T16:39:13.618Z,1.57
2018-07-05T16:41:53.241Z,1.70
2018-07-05T16:44:35.017Z,1.67
2018-07-05T16:47:14.776Z,1.43
2018-07-05T16:49:54.174Z,1.40
2018-07-05T16:52:33.745Z,1.40
2018-07-05T16:55:13.599Z,1.57
2018-07-05T16:57:53.005Z,1.60
2018-07-05T17:00:32.604Z,1.87
2018-07-05T17:03:06.344Z,1.57
2018-07-05T17:05:47.587Z,1.70
2018-07-05T17:08:27.199Z,1.33
2018-07-05T17:11:08.436Z,1.30
2018-07-05T17:13:48.051Z,1.40
2018-07-05T17:16:27.689Z,1.00
2018-07-05T17:19:07.389Z,1.00
2018-07-05T17:21:46.907Z,1.23
2018-07-05T17:24:26.544Z,1.20
2018-07-05T17:27:06.184Z,1.30
2018-07-05T17:29:45.823Z,0.83
2018-07-05T17:32:25.469Z,0.83
2018-07-05T17:35:05.049Z,0.87
2018-07-05T17:37:44.749Z,1.00
2018-07-05T17:40:24.460Z,0.77
2018-07-05T17:43:04.040Z,1.20
2018-07-05T17:45:43.609Z,1.33
2018-07-05T17:48:23.329Z,1.27
2018-07-05T17:51:02.903Z,1.20
2018-07-05T17:53:42.569Z,1.40
2018-07-05T17:56:22.074Z,1.30
2018-07-05T17:58:55.468Z,1.57
2018-07-05T18:01:35.197Z,1.93
2018-07-05T18:04:16.735Z,1.57
2018-07-05T18:06:56.392Z,1.80
2018-07-05T18:09:36.018Z,1.93
2018-07-05T18:12:15.653Z,1.90
2018-07-05T18:14:49.340Z,1.70
2018-07-05T18:17:29.092Z,2.00
2018-07-05T18:20:08.832Z,1.57
2018-07-05T18:22:48.453Z,1.70
2018-07-05T18:25:28.145Z,1.50
2018-07-05T18:28:09.329Z,2.00
2018-07-05T18:30:48.997Z,1.40
2018-07-05T18:33:32.568Z,1.67
2018-07-05T18:36:12.137Z,1.30
2018-07-05T18:38:51.681Z,1.00
2018-07-05T18:41:31.321Z,1.30
2018-07-05T18:44:10.869Z,1.60
2018-07-05T18:46:50.200Z,1.80
2018-07-05T18:49:29.909Z,1.30
2018-07-05T18:52:09.465Z,1.70
2018-07-05T18:54:49.489Z,2.07
2018-07-05T18:57:29.043Z,2.27
2018-07-05T19:00:08.705Z,2.00
2018-07-05T19:02:48.429Z,2.03
2018-07-05T19:05:27.953Z,1.80
2018-07-05T19:08:10.708Z,1.73
2018-07-05T19:10:50.374Z,2.13
2018-07-05T19:13:30.046Z,1.70
2018-07-05T19:19:00.701Z,1.77
2018-07-05T19:21:40.755Z,1.53
2018-07-05T19:24:20.725Z,1.20
2018-07-05T19:27:00.429Z,1.60
2018-07-05T19:29:39.941Z,1.27
2018-07-05T19:32:19.478Z,1.50
2018-07-05T19:34:59.250Z,1.30
2018-07-05T19:40:29.737Z,1.83
2018-07-05T19:43:09.396Z,2.23
2018-07-05T19:45:49.005Z,2.30
2018-07-05T19:48:28.472Z,2.53
2018-07-05T19:51:08.322Z,1.90
2018-07-05T19:53:47.918Z,1.43
2018-07-05T19:56:27.591Z,1.57
2018-07-05T19:59:07.208Z,1.17
2018-07-05T20:01:40.714Z,1.23
2018-07-05T20:04:20.513Z,1.20
2018-07-05T20:07:00.184Z,1.30
2018-07-05T20:09:40.713Z,1.60
2018-07-05T20:12:20.248Z,2.07
2018-07-05T20:14:59.848Z,2.37
2018-07-05T20:17:39.524Z,1.27
2018-07-05T20:20:19.205Z,1.57
2018-07-05T20:22:58.833Z,1.80
2018-07-05T20:25:38.433Z,1.60
2018-07-05T20:28:18.081Z,1.93
2018-07-05T20:30:57.817Z,1.60
2018-07-05T20:33:37.728Z,1.87
2018-07-05T20:36:17.285Z,2.23
2018-07-05T20:38:56.933Z,3.70
2018-07-05T20:41:36.482Z,4.37
2018-07-05T20:44:16.132Z,3.50
2018-07-05T20:46:55.636Z,2.50
2018-07-05T20:49:29.068Z,2.63
2018-07-05T20:52:09.806Z,3.00
2018-07-05T20:54:50.284Z,2.83
2018-07-05T20:57:31.026Z,2.27
2018-07-05T21:00:10.614Z,2.97
2018-07-05T21:02:50.367Z,3.13
2018-07-05T21:05:30.046Z,2.97
2018-07-05T21:08:09.686Z,2.07
2018-07-05T21:10:49.413Z,2.47
2018-07-05T21:13:28.996Z,1.97
2018-07-05T21:16:08.530Z,1.53
2018-07-05T21:18:48.077Z,1.70
2018-07-05T21:21:27.602Z,1.70
2018-07-05T21:28:27.930Z,1.60
2018-07-05T21:31:01.273Z,1.43
2018-07-05T21:33:40.821Z,1.57
2018-07-05T21:36:24.056Z,1.30
2018-07-05T21:39:04.098Z,1.60
2018-07-05T21:41:43.737Z,1.50
2018-07-05T21:44:26.236Z,1.50
2018-07-05T21:47:06.230Z,1.57
2018-07-05T21:49:45.926Z,1.60
2018-07-05T21:52:25.602Z,1.10
2018-07-05T21:55:05.301Z,1.83
2018-07-05T21:57:45.097Z,2.00
2018-07-05T22:00:24.779Z,1.87
2018-07-05T22:03:04.365Z,1.73
2018-07-05T22:05:43.972Z,1.90
2018-07-05T22:08:23.789Z,2.10
2018-07-05T22:11:03.465Z,1.80
2018-07-05T22:13:43.030Z,2.27
2018-07-05T22:16:22.697Z,1.67
2018-07-05T22:19:07.935Z,1.80
2018-07-05T22:21:53.252Z,1.80
2018-07-05T22:24:38.629Z,1.23
2018-07-05T22:27:23.901Z,1.57
2018-07-05T22:30:09.177Z,1.60
2018-07-05T22:32:48.933Z,1.70
2018-07-05T22:35:28.457Z,1.60
2018-07-05T22:38:07.984Z,1.67
2018-07-05T22:40:47.761Z,1.33
2018-07-05T22:43:27.387Z,1.30
2018-07-05T22:46:06.761Z,1.60
2018-07-05T22:48:46.225Z,1.40
2018-07-05T22:51:25.809Z,1.67
2018-07-05T22:54:05.289Z,1.50
2018-07-05T22:56:45.014Z,1.50
2018-07-05T22:59:24.577Z,1.30
2018-07-05T23:02:04.228Z,1.30
2018-07-05T23:04:43.897Z,1.57
2018-07-05T23:07:23.533Z,1.20
2018-07-05T23:10:03.241Z,1.30
2018-07-05T23:12:42.724Z,1.23
2018-07-05T23:15:22.235Z,1.57
2018-07-05T23:18:01.898Z,1.10
2018-07-05T23:20:41.469Z,2.23
2018-07-05T23:23:21.273Z,1.70
2018-07-05T23:26:01.017Z,2.07
2018-07-05T23:28:40.660Z,2.23
2018-07-05T23:31:20.282Z,1.57
2018-07-05T23:33:59.927Z,1.60
2018-07-05T23:36:39.417Z,2.00
2018-07-05T23:39:18.973Z,1.50
2018-07-05T23:41:58.602Z,1.53
2018-07-05T23:47:29.093Z,1.67
2018-07-05T23:50:08.702Z,1.30
2018-07-05T23:52:48.250Z,1.57
2018-07-05T23:55:27.937Z,1.70
2018-07-05T23:58:07.563Z,1.23
